createdAt,value
2022-11-24T00:01:23.279Z,54.40
2022-11-24T00:03:59.115Z,54.25
2022-11-24T00:06:26.536Z,54.36
2022-11-24T00:08:53.790Z,54.43
2022-11-24T00:11:25.894Z,54.21
2022-11-24T00:13:53.673Z,54.21
2022-11-24T00:16:25.857Z,54.60
2022-11-24T00:18:54.829Z,54.42
2022-11-24T00:21:22.244Z,54.49
2022-11-24T00:23:49.737Z,54.22
2022-11-24T00:26:18.811Z,54.46
2022-11-24T00:28:47.719Z,54.69
2022-11-24T00:31:23.464Z,54.42
2022-11-24T00:33:52.488Z,54.59
2022-11-24T00:36:20.519Z,54.75
2022-11-24T00:38:48.157Z,54.60
2022-11-24T00:41:14.855Z,54.74
2022-11-24T00:43:41.624Z,54.73
2022-11-24T00:46:08.769Z,54.74
2022-11-24T00:48:36.132Z,54.45
2022-11-24T00:51:06.090Z,54.48
2022-11-24T00:53:32.986Z,54.41
2022-11-24T00:55:59.702Z,54.36
2022-11-24T00:58:26.419Z,54.69
2022-11-24T01:00:53.328Z,54.73
2022-11-24T01:03:21.112Z,54.70
2022-11-24T01:05:48.028Z,54.45
2022-11-24T01:08:15.095Z,54.58
2022-11-24T01:10:41.835Z,54.34
2022-11-24T01:13:08.660Z,54.79
2022-11-24T01:15:36.692Z,54.78
2022-11-24T01:18:04.439Z,54.87
2022-11-24T01:20:31.790Z,54.77
2022-11-24T01:22:58.802Z,54.61
2022-11-24T01:25:25.531Z,54.41
2022-11-24T01:27:52.571Z,54.45
2022-11-24T01:30:19.332Z,54.37
2022-11-24T01:32:46.076Z,54.68
2022-11-24T01:35:12.757Z,54.49
2022-11-24T01:37:39.513Z,54.60
2022-11-24T01:40:07.062Z,54.65
2022-11-24T01:42:40.847Z,54.59
2022-11-24T01:45:28.534Z,54.72
2022-11-24T01:47:55.557Z,54.28
2022-11-24T01:50:22.776Z,54.33
2022-11-24T01:52:53.475Z,54.36
2022-11-24T01:55:23.241Z,54.27
2022-11-24T01:58:06.507Z,54.52
2022-11-24T02:00:41.302Z,54.42
2022-11-24T02:03:10.236Z,54.66
2022-11-24T02:05:57.559Z,54.56
2022-11-24T02:08:40.658Z,54.57
2022-11-24T02:11:07.457Z,54.41
2022-11-24T02:13:37.052Z,54.58
2022-11-24T02:16:06.526Z,54.16
2022-11-24T02:18:33.540Z,54.22
2022-11-24T02:21:00.570Z,54.43
2022-11-24T02:23:36.183Z,54.45
2022-11-24T02:26:26.315Z,54.69
2022-11-24T02:28:53.192Z,54.17
2022-11-24T02:31:19.904Z,54.07
2022-11-24T02:33:47.376Z,54.34
2022-11-24T02:36:14.070Z,54.37
2022-11-24T02:38:40.766Z,54.50
2022-11-24T02:41:09.287Z,54.35
2022-11-24T02:43:39.632Z,54.17
2022-11-24T02:46:06.931Z,54.27
2022-11-24T02:48:33.649Z,54.21
2022-11-24T02:51:00.365Z,54.08
2022-11-24T02:53:26.998Z,53.95
2022-11-24T02:55:53.786Z,54.14
2022-11-24T02:58:20.863Z,54.44
2022-11-24T03:00:47.855Z,54.44
2022-11-24T03:03:14.659Z,54.42
2022-11-24T03:05:41.425Z,54.20
2022-11-24T03:08:08.048Z,54.00
2022-11-24T03:10:34.801Z,54.45
2022-11-24T03:13:01.499Z,54.09
2022-11-24T03:15:28.230Z,54.42
2022-11-24T03:17:56.576Z,54.23
2022-11-24T03:20:24.181Z,54.43
2022-11-24T03:22:50.890Z,53.99
2022-11-24T03:25:17.959Z,54.47
2022-11-24T03:27:44.643Z,54.39
2022-11-24T03:30:12.378Z,54.16
2022-11-24T03:32:39.050Z,54.15
2022-11-24T03:35:06.283Z,54.38
2022-11-24T03:37:32.941Z,54.49
2022-11-24T03:39:59.739Z,54.69
2022-11-24T03:42:26.423Z,54.34
2022-11-24T03:44:53.178Z,54.38
2022-11-24T03:47:19.851Z,54.04
2022-11-24T03:49:46.598Z,54.26
2022-11-24T03:52:13.298Z,54.46
2022-11-24T03:54:40.073Z,54.18
2022-11-24T03:57:07.083Z,54.06
2022-11-24T03:59:33.789Z,54.44
2022-11-24T04:02:00.501Z,54.26
2022-11-24T04:04:27.203Z,54.30
2022-11-24T04:06:53.832Z,54.20
2022-11-24T04:09:20.604Z,54.33
2022-11-24T04:12:06.153Z,54.18
2022-11-24T04:14:33.311Z,54.40
2022-11-24T04:17:00.193Z,54.11
2022-11-24T04:19:26.989Z,54.38
2022-11-24T04:21:53.794Z,54.42
2022-11-24T04:24:20.648Z,54.28
2022-11-24T04:26:47.341Z,54.42
2022-11-24T04:29:14.038Z,54.57
2022-11-24T04:31:40.784Z,54.47
2022-11-24T04:34:07.534Z,54.28
2022-11-24T04:36:34.184Z,54.27
2022-11-24T04:39:25.473Z,54.34
2022-11-24T04:41:48.377Z,54.57
2022-11-24T04:44:15.252Z,54.28
2022-11-24T04:46:41.999Z,54.58
2022-11-24T04:49:18.571Z,54.50
2022-11-24T04:51:47.959Z,54.51
2022-11-24T04:54:15.201Z,54.65
2022-11-24T04:56:42.706Z,54.18
2022-11-24T04:59:15.878Z,54.45
2022-11-24T05:01:43.461Z,54.12
2022-11-24T05:04:11.760Z,54.18
2022-11-24T05:06:38.704Z,54.61
2022-11-24T05:09:05.985Z,54.49
2022-11-24T05:11:33.010Z,54.31
2022-11-24T05:13:59.927Z,54.13
2022-11-24T05:16:26.898Z,54.41
2022-11-24T05:18:53.594Z,54.55
2022-11-24T05:21:20.349Z,54.36
2022-11-24T05:23:47.073Z,54.42
2022-11-24T05:26:13.808Z,54.01
2022-11-24T05:28:40.541Z,54.09
2022-11-24T05:31:07.909Z,54.45
2022-11-24T05:33:38.285Z,54.40
2022-11-24T05:36:06.412Z,54.42
2022-11-24T05:38:33.612Z,54.08
2022-11-24T05:41:05.012Z,54.54
2022-11-24T05:43:31.960Z,54.13
2022-11-24T05:46:02.083Z,54.45
2022-11-24T05:48:29.331Z,54.41
2022-11-24T05:50:57.334Z,54.21
2022-11-24T05:53:25.736Z,54.39
2022-11-24T05:55:52.478Z,54.43
2022-11-24T05:58:19.281Z,54.07
2022-11-24T06:00:46.027Z,54.19
2022-11-24T06:03:13.134Z,53.94
2022-11-24T06:05:40.103Z,54.33
2022-11-24T06:08:06.867Z,54.16
2022-11-24T06:10:33.593Z,54.43
2022-11-24T06:13:05.171Z,54.43
2022-11-24T06:15:32.362Z,54.33
2022-11-24T06:18:00.266Z,54.34
2022-11-24T06:20:31.331Z,54.48
2022-11-24T06:23:00.124Z,54.26
2022-11-24T06:25:27.454Z,54.24
2022-11-24T06:27:54.173Z,54.01
2022-11-24T06:30:21.403Z,54.15
2022-11-24T06:32:50.027Z,54.42
2022-11-24T06:35:17.021Z,54.34
2022-11-24T06:37:43.907Z,54.17
2022-11-24T06:40:10.930Z,54.39
2022-11-24T06:42:37.917Z,54.60
2022-11-24T06:45:08.992Z,54.59
2022-11-24T06:47:36.333Z,54.60
2022-11-24T06:50:03.418Z,54.23
2022-11-24T06:52:30.238Z,54.18
2022-11-24T06:54:57.385Z,54.18
2022-11-24T06:57:24.217Z,54.49
2022-11-24T06:59:51.198Z,54.41
2022-11-24T07:02:18.010Z,54.73
2022-11-24T07:04:44.693Z,55.05
2022-11-24T07:07:11.480Z,55.47
2022-11-24T07:09:38.214Z,55.60
2022-11-24T07:12:06.013Z,55.61
2022-11-24T07:14:33.576Z,55.48
2022-11-24T07:17:02.668Z,55.89
2022-11-24T07:19:29.488Z,56.10
2022-11-24T07:21:56.315Z,56.41
2022-11-24T07:24:23.043Z,56.49
2022-11-24T07:26:49.827Z,56.50
2022-11-24T07:29:16.565Z,56.88
2022-11-24T07:31:43.448Z,56.62
2022-11-24T07:34:10.442Z,56.94
2022-11-24T07:36:37.206Z,56.66
2022-11-24T07:39:06.947Z,57.22
2022-11-24T07:41:33.707Z,57.27
2022-11-24T07:44:00.430Z,57.26
2022-11-24T07:46:27.348Z,56.94
2022-11-24T07:48:54.097Z,57.00
2022-11-24T07:51:20.994Z,57.36
2022-11-24T07:53:47.718Z,57.67
2022-11-24T07:56:14.562Z,57.20
2022-11-24T07:58:41.506Z,57.05
2022-11-24T08:01:17.081Z,57.53
2022-11-24T08:03:45.343Z,57.23
2022-11-24T08:06:35.367Z,57.45
2022-11-24T08:09:00.200Z,57.32
2022-11-24T08:11:27.352Z,57.19
2022-11-24T08:13:54.191Z,56.99
2022-11-24T08:16:21.320Z,56.88
2022-11-24T08:18:55.591Z,57.24
2022-11-24T08:21:23.608Z,56.86
2022-11-24T08:23:54.147Z,56.82
2022-11-24T08:26:20.945Z,56.96
2022-11-24T08:28:48.115Z,56.85
2022-11-24T08:31:18.823Z,57.04
2022-11-24T08:33:46.012Z,57.19
2022-11-24T08:36:18.955Z,56.69
2022-11-24T08:38:46.150Z,56.61
2022-11-24T08:41:15.270Z,56.69
2022-11-24T08:43:42.430Z,56.61
2022-11-24T08:46:12.793Z,56.86
2022-11-24T08:48:40.349Z,56.76
2022-11-24T08:51:13.883Z,57.11
2022-11-24T08:53:41.302Z,56.75
2022-11-24T08:56:09.258Z,57.06
2022-11-24T08:58:37.700Z,56.98
2022-11-24T09:01:12.461Z,56.92
2022-11-24T09:03:44.769Z,56.35
2022-11-24T09:06:17.037Z,56.52
2022-11-24T09:08:43.763Z,56.51
2022-11-24T09:11:12.557Z,56.46
2022-11-24T09:13:40.365Z,56.72
2022-11-24T09:16:14.868Z,56.62
2022-11-24T09:18:42.202Z,56.26
2022-11-24T09:21:11.332Z,56.17
2022-11-24T09:23:38.337Z,56.23
2022-11-24T09:26:09.639Z,56.12
2022-11-24T09:28:36.819Z,56.12
2022-11-24T09:31:05.556Z,55.83
2022-11-24T09:33:32.941Z,55.99
2022-11-24T09:36:00.174Z,56.04
2022-11-24T09:38:27.334Z,55.98
2022-11-24T09:40:57.328Z,55.70
2022-11-24T09:43:58.042Z,55.91
2022-11-24T09:46:41.192Z,55.78
2022-11-24T09:49:20.077Z,55.79
2022-11-24T09:51:49.300Z,55.45
2022-11-24T09:54:21.971Z,55.29
2022-11-24T09:56:51.332Z,55.69
2022-11-24T09:59:22.573Z,55.46
2022-11-24T10:01:50.443Z,55.13
2022-11-24T10:04:29.268Z,54.97
2022-11-24T10:07:11.669Z,55.10
2022-11-24T10:09:54.621Z,54.96
2022-11-24T10:12:35.421Z,55.16
2022-11-24T10:15:16.418Z,55.10
2022-11-24T10:17:45.513Z,55.26
2022-11-24T10:20:45.002Z,55.17
2022-11-24T10:23:11.906Z,55.27
2022-11-24T10:25:44.750Z,54.73
2022-11-24T10:28:14.702Z,54.63
2022-11-24T10:30:42.035Z,55.06
2022-11-24T10:33:17.866Z,54.95
2022-11-24T10:35:48.785Z,54.84
2022-11-24T10:38:21.255Z,54.53
2022-11-24T10:40:57.300Z,54.39
2022-11-24T10:43:28.423Z,54.45
2022-11-24T10:45:55.824Z,54.52
2022-11-24T10:48:25.525Z,54.82
2022-11-24T10:51:06.746Z,54.48
2022-11-24T10:53:35.075Z,54.12
2022-11-24T10:56:04.965Z,54.21
2022-11-24T10:58:37.308Z,54.53
2022-11-24T11:01:14.410Z,54.49
2022-11-24T11:03:49.670Z,54.05
2022-11-24T11:06:24.632Z,54.45
2022-11-24T11:09:07.334Z,54.60
2022-11-24T11:11:36.492Z,54.86
2022-11-24T11:14:05.603Z,55.03
2022-11-24T11:16:51.158Z,55.05
2022-11-24T11:20:02.035Z,54.64
2022-11-24T11:22:32.377Z,54.40
2022-11-24T11:25:11.442Z,54.75
2022-11-24T11:27:40.410Z,54.29
2022-11-24T11:36:11.156Z,53.88
2022-11-24T11:38:39.470Z,53.91
2022-11-24T11:41:08.825Z,54.28
2022-11-24T11:43:36.427Z,54.19
2022-11-24T11:46:22.540Z,53.82
2022-11-24T11:48:49.736Z,53.65
2022-11-24T11:51:49.072Z,53.63
2022-11-24T11:54:30.797Z,53.53
2022-11-24T11:57:11.324Z,53.57
2022-11-24T11:59:49.958Z,53.34
2022-11-24T12:02:32.185Z,53.67
2022-11-24T12:05:20.497Z,53.35
2022-11-24T12:07:56.405Z,53.32
2022-11-24T12:10:48.142Z,53.36
2022-11-24T12:13:33.561Z,53.48
2022-11-24T12:16:15.675Z,53.48
2022-11-24T12:18:59.291Z,53.31
2022-11-24T12:21:46.770Z,53.24
2022-11-24T12:24:32.405Z,53.49
2022-11-24T12:27:04.390Z,53.21
2022-11-24T12:29:44.807Z,53.49
2022-11-24T12:32:31.403Z,53.24
2022-11-24T12:35:09.987Z,53.25
2022-11-24T12:37:46.044Z,52.90
2022-11-24T12:40:31.134Z,53.34
2022-11-24T12:43:04.837Z,52.68
2022-11-24T12:45:40.135Z,52.93
2022-11-24T12:48:22.687Z,52.90
2022-11-24T12:50:50.558Z,52.96
2022-11-24T12:53:23.862Z,52.73
2022-11-24T12:55:51.167Z,52.28
2022-11-24T12:58:35.760Z,52.52
2022-11-24T13:01:35.047Z,51.86
2022-11-24T13:04:10.372Z,52.15
2022-11-24T13:06:52.334Z,52.66
2022-11-24T13:09:19.153Z,52.38
2022-11-24T13:11:53.244Z,52.30
2022-11-24T13:14:25.360Z,52.21
2022-11-24T13:19:41.687Z,51.91
2022-11-24T13:22:08.354Z,52.41
2022-11-24T13:24:37.034Z,52.17
2022-11-24T13:27:16.222Z,52.25
2022-11-24T13:29:52.207Z,52.43
2022-11-24T13:32:18.924Z,52.29
2022-11-24T13:34:45.934Z,52.32
2022-11-24T13:37:31.897Z,52.70
2022-11-24T13:40:14.017Z,52.78
2022-11-24T13:42:56.620Z,53.11
2022-11-24T13:45:50.743Z,53.17
2022-11-24T13:48:21.007Z,53.23
2022-11-24T13:50:51.654Z,53.96
2022-11-24T13:53:45.430Z,53.94
2022-11-24T13:56:12.255Z,53.85
2022-11-24T13:58:42.091Z,54.09
2022-11-24T14:01:19.503Z,54.07
2022-11-24T14:04:07.127Z,54.52
2022-11-24T14:06:34.858Z,54.34
2022-11-24T14:09:20.412Z,54.69
2022-11-24T14:12:15.513Z,54.93
2022-11-24T14:14:44.553Z,54.81
2022-11-24T14:17:17.611Z,55.15
2022-11-24T14:19:46.807Z,55.28
2022-11-24T14:22:20.972Z,54.91
2022-11-24T14:24:56.473Z,55.21
2022-11-24T14:27:40.122Z,55.10
2022-11-24T14:30:09.774Z,54.95
2022-11-24T14:32:37.870Z,55.23
2022-11-24T14:35:26.707Z,54.91
2022-11-24T14:37:53.559Z,54.79
2022-11-24T14:40:56.060Z,55.06
2022-11-24T14:43:26.160Z,55.43
2022-11-24T14:46:12.289Z,55.51
2022-11-24T14:48:45.554Z,55.76
2022-11-24T14:51:24.322Z,55.41
2022-11-24T14:53:53.270Z,55.36
2022-11-24T14:56:25.719Z,55.39
2022-11-24T14:58:53.538Z,55.58
2022-11-24T15:01:23.491Z,55.23
2022-11-24T15:04:17.880Z,55.57
2022-11-24T15:07:21.362Z,55.75
2022-11-24T15:09:48.061Z,55.80
2022-11-24T15:12:36.350Z,55.61
2022-11-24T15:15:24.522Z,55.88
2022-11-24T15:17:57.086Z,55.88
2022-11-24T15:20:30.758Z,55.68
2022-11-24T15:23:27.708Z,55.86
2022-11-24T15:25:55.848Z,55.54
2022-11-24T15:28:26.224Z,55.33
2022-11-24T15:30:54.823Z,55.48
2022-11-24T15:33:22.855Z,55.69
2022-11-24T15:35:49.878Z,55.30
2022-11-24T15:38:17.205Z,55.45
2022-11-24T15:40:49.086Z,55.62
2022-11-24T15:43:34.641Z,55.69
2022-11-24T15:46:02.584Z,55.30
2022-11-24T15:48:30.147Z,55.43
2022-11-24T15:50:58.064Z,55.75
2022-11-24T15:53:31.911Z,55.37
2022-11-24T15:55:59.835Z,55.59
2022-11-24T15:58:26.605Z,55.91
2022-11-24T16:00:53.813Z,55.65
2022-11-24T16:06:15.019Z,55.62
2022-11-24T16:08:43.573Z,55.87
2022-11-24T16:11:10.317Z,55.57
2022-11-24T16:13:37.075Z,56.02
2022-11-24T16:16:04.036Z,55.79
2022-11-24T16:18:31.842Z,55.42
2022-11-24T16:20:59.064Z,55.76
2022-11-24T16:23:25.851Z,55.59
2022-11-24T16:25:52.559Z,55.83
2022-11-24T16:28:20.301Z,55.79
2022-11-24T16:30:50.809Z,55.70
2022-11-24T16:33:17.730Z,55.59
2022-11-24T16:35:48.191Z,55.68
2022-11-24T16:38:16.357Z,55.84
2022-11-24T16:40:43.534Z,55.74
2022-11-24T16:43:10.623Z,56.09
2022-11-24T16:45:40.810Z,56.13
2022-11-24T16:48:10.493Z,56.30
2022-11-24T16:50:37.931Z,56.15
2022-11-24T16:53:04.721Z,55.81
2022-11-24T16:55:31.387Z,55.96
2022-11-24T16:57:58.164Z,55.80
2022-11-24T17:00:24.875Z,55.80
2022-11-24T17:02:51.636Z,55.93
2022-11-24T17:05:18.394Z,55.80
2022-11-24T17:07:45.192Z,56.43
2022-11-24T17:10:11.857Z,56.52
2022-11-24T17:12:38.756Z,56.81
2022-11-24T17:18:22.368Z,57.00
2022-11-24T17:20:39.876Z,56.79
2022-11-24T17:23:06.664Z,57.18
2022-11-24T17:25:33.432Z,57.12
2022-11-24T17:28:00.243Z,56.79
2022-11-24T17:30:27.021Z,57.23
2022-11-24T17:32:56.978Z,57.19
2022-11-24T17:35:23.947Z,56.96
2022-11-24T17:37:51.100Z,57.28
2022-11-24T17:40:34.564Z,57.04
2022-11-24T17:43:01.815Z,56.70
2022-11-24T17:45:29.430Z,56.97
2022-11-24T17:47:57.306Z,57.11
2022-11-24T17:50:26.002Z,56.93
2022-11-24T17:52:55.306Z,56.66
2022-11-24T17:55:23.012Z,56.59
2022-11-24T17:57:50.589Z,56.58
2022-11-24T18:00:17.783Z,56.54
2022-11-24T18:02:45.359Z,56.39
2022-11-24T18:05:12.214Z,56.34
2022-11-24T18:07:39.296Z,56.52
2022-11-24T18:10:06.672Z,56.11
2022-11-24T18:12:33.417Z,55.96
2022-11-24T18:15:00.195Z,55.91
2022-11-24T18:17:29.031Z,56.08
2022-11-24T18:19:56.103Z,55.91
2022-11-24T18:22:43.044Z,55.58
2022-11-24T18:25:09.820Z,55.46
2022-11-24T18:27:36.708Z,55.65
2022-11-24T18:30:05.082Z,55.67
2022-11-24T18:32:32.757Z,55.59
2022-11-24T18:34:59.586Z,55.51
2022-11-24T18:37:26.247Z,55.36
2022-11-24T18:39:53.001Z,55.20
2022-11-24T18:42:20.945Z,55.36
2022-11-24T18:44:52.497Z,55.12
2022-11-24T18:47:20.669Z,54.83
2022-11-24T18:49:47.348Z,55.23
2022-11-24T18:52:14.239Z,54.63
2022-11-24T18:54:41.137Z,54.95
2022-11-24T18:57:07.919Z,54.62
2022-11-24T18:59:35.045Z,54.90
2022-11-24T19:02:01.894Z,54.83
2022-11-24T19:04:28.621Z,54.86
2022-11-24T19:06:55.376Z,54.59
2022-11-24T19:09:22.948Z,54.71
2022-11-24T19:11:49.758Z,54.34
2022-11-24T19:14:17.951Z,54.34
2022-11-24T19:16:48.055Z,54.29
2022-11-24T19:19:15.221Z,54.43
2022-11-24T19:21:44.636Z,54.24
2022-11-24T19:24:15.308Z,54.20
2022-11-24T19:26:42.147Z,53.93
2022-11-24T19:29:08.891Z,54.05
2022-11-24T19:31:43.013Z,54.03
2022-11-24T19:34:11.270Z,53.70
2022-11-24T19:36:38.246Z,53.56
2022-11-24T19:39:05.510Z,53.54
2022-11-24T19:41:33.559Z,53.66
2022-11-24T19:44:01.476Z,53.34
2022-11-24T19:46:29.974Z,53.28
2022-11-24T19:49:00.509Z,52.92
2022-11-24T19:51:31.621Z,53.32
2022-11-24T19:53:59.424Z,53.01
2022-11-24T19:56:28.417Z,52.85
2022-11-24T19:58:55.768Z,52.88
2022-11-24T20:01:26.766Z,53.24
2022-11-24T20:03:58.773Z,53.02
2022-11-24T20:06:27.906Z,52.98
2022-11-24T20:08:55.495Z,52.64
2022-11-24T20:11:22.293Z,53.03
2022-11-24T20:13:50.306Z,52.59
2022-11-24T20:16:20.426Z,52.67
2022-11-24T20:18:47.929Z,53.04
2022-11-24T20:21:15.580Z,52.65
2022-11-24T20:23:42.635Z,52.98
2022-11-24T20:26:13.832Z,52.50
2022-11-24T20:28:41.065Z,52.53
2022-11-24T20:31:11.465Z,52.57
2022-11-24T20:33:38.950Z,52.47
2022-11-24T20:36:08.592Z,52.60
2022-11-24T20:38:36.820Z,52.53
2022-11-24T20:41:09.242Z,52.36
2022-11-24T20:43:37.052Z,52.66
2022-11-24T20:46:05.192Z,52.69
2022-11-24T20:48:33.044Z,52.73
2022-11-24T20:51:14.565Z,52.61
2022-11-24T20:53:41.422Z,52.25
2022-11-24T20:56:10.926Z,52.49
2022-11-24T20:58:37.970Z,52.37
2022-11-24T21:01:12.420Z,52.38
2022-11-24T21:03:43.255Z,52.43
2022-11-24T21:06:12.151Z,52.28
2022-11-24T21:08:40.513Z,52.44
2022-11-24T21:11:08.675Z,52.38
2022-11-24T21:13:36.376Z,51.99
2022-11-24T21:16:20.364Z,52.23
2022-11-24T21:18:50.785Z,51.97
2022-11-24T21:21:18.715Z,51.82
2022-11-24T21:23:45.628Z,52.13
2022-11-24T21:26:16.625Z,51.81
2022-11-24T21:28:44.803Z,51.79
2022-11-24T21:31:16.598Z,52.04
2022-11-24T21:33:45.512Z,51.79
2022-11-24T21:36:14.859Z,52.02
2022-11-24T21:38:42.803Z,51.83
2022-11-24T21:41:10.981Z,51.70
2022-11-24T21:43:38.685Z,51.63
2022-11-24T21:46:15.150Z,51.70
2022-11-24T21:48:43.423Z,51.38
2022-11-24T21:51:18.014Z,51.60
2022-11-24T21:53:46.106Z,51.47
2022-11-24T21:56:15.178Z,51.34
2022-11-24T21:58:50.277Z,51.47
2022-11-24T22:01:19.229Z,51.67
2022-11-24T22:03:46.269Z,51.08
2022-11-24T22:06:13.700Z,51.15
2022-11-24T22:08:40.451Z,51.16
2022-11-24T22:11:11.654Z,51.30
2022-11-24T22:13:38.871Z,51.53
2022-11-24T22:16:07.763Z,51.14
2022-11-24T22:18:48.039Z,51.45
2022-11-24T22:21:29.885Z,51.12
2022-11-24T22:23:56.728Z,50.95
2022-11-24T22:26:24.573Z,51.20
2022-11-24T22:28:56.822Z,51.09
2022-11-24T22:31:28.905Z,51.39
2022-11-24T22:33:56.477Z,51.01
2022-11-24T22:36:24.866Z,51.07
2022-11-24T22:38:58.815Z,51.43
2022-11-24T22:41:25.796Z,50.98
2022-11-24T22:43:53.553Z,51.18
2022-11-24T22:46:26.172Z,51.19
2022-11-24T22:48:54.427Z,51.33
2022-11-24T22:51:23.544Z,51.03
2022-11-24T22:53:58.065Z,51.42
2022-11-24T22:56:25.232Z,50.94
2022-11-24T22:58:51.967Z,50.95
2022-11-24T23:01:23.685Z,51.12
2022-11-24T23:03:51.130Z,50.98
2022-11-24T23:06:20.494Z,51.05
2022-11-24T23:08:47.605Z,50.81
2022-11-24T23:11:25.842Z,51.05
2022-11-24T23:13:57.194Z,50.69
2022-11-24T23:16:24.367Z,51.06
2022-11-24T23:18:53.935Z,50.68
2022-11-24T23:21:23.000Z,50.95
2022-11-24T23:23:50.786Z,51.18
2022-11-24T23:26:26.102Z,50.62
2022-11-24T23:28:52.859Z,50.89
2022-11-24T23:31:21.875Z,51.03
2022-11-24T23:33:48.634Z,51.02
2022-11-24T23:36:19.817Z,50.67
2022-11-24T23:38:46.885Z,50.84
2022-11-24T23:41:24.596Z,51.11
2022-11-24T23:43:52.492Z,51.08
2022-11-24T23:46:21.694Z,50.95
2022-11-24T23:48:49.590Z,50.97
2022-11-24T23:51:20.605Z,50.82
2022-11-24T23:53:47.500Z,50.64
2022-11-24T23:56:16.850Z,51.05
2022-11-24T23:58:44.333Z,50.79
